Time;durP1;ratioP1;P1;durP2;ratioP2;P2;SDS_P1;SDS_P2;PMS_P1;PMS_P2;Temp;Humidity;BMP_temperature;BMP_pressure;BME280_temperature;BME280_humidity;BME280_pressure;Samples;Min_cycle;Max_cycle;Signal;HPM_P1;HPM_P2
2023/01/04 00:00:44;;;;;;;10.68;3.88;;;8.20;90.60;;;;;;4830663;29;20053;-75
2023/01/04 00:03:10;;;;;;;10.20;3.63;;;8.10;90.70;;;;;;4827946;29;20086;-78
2023/01/04 00:05:35;;;;;;;9.77;3.08;;;8.10;90.80;;;;;;4829838;29;20053;-79
2023/01/04 00:08:01;;;;;;;10.05;3.33;;;8.10;90.90;;;;;;4832916;29;20700;-80
2023/01/04 00:10:27;;;;;;;10.35;3.60;;;8.10;90.80;;;;;;4829424;29;20049;-80
2023/01/04 00:12:52;;;;;;;8.50;3.55;;;8.10;90.70;;;;;;4825632;29;20053;-79
2023/01/04 00:15:18;;;;;;;11.75;3.83;;;8.20;90.80;;;;;;4831123;29;20074;-78
2023/01/04 00:17:43;;;;;;;9.75;3.65;;;8.20;90.80;;;;;;4833769;29;20414;-78
2023/01/04 00:20:09;;;;;;;10.68;3.60;;;8.20;90.70;;;;;;4829791;29;20487;-80
2023/01/04 00:22:35;;;;;;;9.10;3.22;;;8.20;90.70;;;;;;4809347;29;20054;-79
2023/01/04 00:25:00;;;;;;;9.18;3.60;;;8.20;90.60;;;;;;4829700;29;20053;-80
2023/01/04 00:27:26;;;;;;;9.57;3.70;;;8.20;90.60;;;;;;4831135;29;20653;-79
2023/01/04 00:29:52;;;;;;;5.50;3.47;;;8.30;90.60;;;;;;4831632;29;20053;-76
2023/01/04 00:32:17;;;;;;;6.63;3.40;;;8.30;90.50;;;;;;4832892;29;20406;-78
2023/01/04 00:35:01;;;;;;;12.27;3.95;;;8.30;90.50;;;;;;4831105;29;20137;-80
2023/01/04 00:37:27;;;;;;;9.48;3.17;;;8.20;90.60;;;;;;4834488;29;20144;-78
2023/01/04 00:39:52;;;;;;;25.52;4.22;;;8.30;90.70;;;;;;4829617;29;20077;-80
2023/01/04 00:42:18;;;;;;;9.98;3.70;;;8.30;90.50;;;;;;4836216;29;20049;-79
2023/01/04 00:44:43;;;;;;;11.07;3.72;;;8.20;90.60;;;;;;4832245;29;20046;-78
2023/01/04 00:47:09;;;;;;;9.65;3.58;;;8.30;90.70;;;;;;4835209;29;20046;-79
2023/01/04 00:49:35;;;;;;;8.93;3.45;;;8.30;90.80;;;;;;4837394;29;20038;-79
2023/01/04 00:52:00;;;;;;;12.20;3.60;;;8.20;91.00;;;;;;4835470;29;20475;-78
2023/01/04 00:54:26;;;;;;;7.07;3.25;;;8.20;91.20;;;;;;4830603;29;20042;-79
2023/01/04 00:56:52;;;;;;;9.73;3.55;;;8.10;91.50;;;;;;4838659;29;20571;-79
2023/01/04 00:59:19;;;;;;;7.25;3.78;;;8.10;91.70;;;;;;4834058;29;20045;-79
2023/01/04 01:01:46;;;;;;;9.60;3.70;;;8.00;92.00;;;;;;4836077;29;20053;-80
2023/01/04 01:04:13;;;;;;;9.07;3.70;;;8.00;92.30;;;;;;4833118;29;20048;-79
2023/01/04 01:06:39;;;;;;;12.60;4.10;;;7.90;92.20;;;;;;4833149;29;20057;-79
2023/01/04 01:09:05;;;;;;;9.82;3.65;;;8.00;92.40;;;;;;4838374;29;20503;-79
2023/01/04 01:11:30;;;;;;;9.60;3.88;;;7.90;92.40;;;;;;4834897;29;20038;-78
2023/01/04 01:13:57;;;;;;;14.35;4.10;;;7.90;92.50;;;;;;4835205;29;20058;-78
2023/01/04 01:16:25;;;;;;;9.25;4.28;;;7.90;92.50;;;;;;4828064;29;20045;-79
2023/01/04 01:18:52;;;;;;;10.85;3.80;;;7.90;92.60;;;;;;4836670;29;20049;-79
2023/01/04 01:21:20;;;;;;;13.18;3.72;;;7.90;92.60;;;;;;4833084;29;20177;-77
2023/01/04 01:23:46;;;;;;;10.23;3.65;;;7.90;92.70;;;;;;4825104;29;20053;-77
2023/01/04 01:26:15;;;;;;;8.90;3.20;;;8.00;92.70;;;;;;4821790;29;20038;-78
2023/01/04 01:28:41;;;;;;;10.48;3.85;;;8.00;92.60;;;;;;4827468;29;20519;-76
2023/01/04 01:31:09;;;;;;;8.07;3.28;;;8.00;92.60;;;;;;4833273;29;20066;-79
2023/01/04 01:33:36;;;;;;;13.25;3.85;;;8.10;92.70;;;;;;4834355;29;20616;-77
2023/01/04 01:36:03;;;;;;;12.07;3.63;;;8.00;92.70;;;;;;4830091;29;20034;-80
2023/01/04 01:38:28;;;;;;;7.85;3.45;;;8.10;92.80;;;;;;4835310;29;20034;-79
2023/01/04 01:40:54;;;;;;;8.38;3.58;;;8.00;92.90;;;;;;4835970;29;20053;-75
2023/01/04 01:43:41;;;;;;;10.27;3.72;;;8.00;93.10;;;;;;4821407;29;20540;-79
2023/01/04 01:46:07;;;;;;;8.60;3.88;;;7.90;93.30;;;;;;4832397;29;20074;-78
2023/01/04 01:48:32;;;;;;;8.70;3.55;;;8.00;93.70;;;;;;4829689;29;20042;-78
2023/01/04 01:51:02;;;;;;;8.30;3.45;;;7.90;93.70;;;;;;4832365;29;20157;-76
2023/01/04 01:53:32;;;;;;;6.20;3.10;;;8.00;93.80;;;;;;4831734;29;20841;-78
2023/01/04 01:55:59;;;;;;;11.73;3.90;;;8.00;93.80;;;;;;4839364;29;20399;-76
2023/01/04 01:58:33;;;;;;;6.53;3.53;;;8.00;93.90;;;;;;4831956;29;20394;-80
2023/01/04 02:00:59;;;;;;;8.75;3.45;;;8.00;94.10;;;;;;4832860;29;20057;-79
2023/01/04 02:03:36;;;;;;;7.95;3.92;;;8.00;94.20;;;;;;4832216;29;20061;-80
2023/01/04 02:06:05;;;;;;;4.97;3.60;;;7.90;94.50;;;;;;4830495;29;20054;-78
2023/01/04 02:08:31;;;;;;;8.68;4.00;;;7.90;94.60;;;;;;4832669;29;20456;-80
2023/01/04 02:10:57;;;;;;;6.45;3.70;;;7.90;94.90;;;;;;4834733;29;20053;-79
2023/01/04 02:14:25;;;;;;;6.35;3.63;;;7.90;94.90;;;;;;4829265;29;20049;-81
2023/01/04 02:16:45;;;;;;;5.75;3.80;;;7.90;95.10;;;;;;4830002;29;20046;-76
2023/01/04 02:19:13;;;;;;;8.98;4.00;;;7.90;95.30;;;;;;4832827;29;20401;-79
2023/01/04 02:22:03;;;;;;;7.07;3.65;;;7.90;95.40;;;;;;4832438;29;20129;-76
2023/01/04 02:24:54;;;;;;;11.18;3.72;;;7.90;95.50;;;;;;4818455;29;20138;-77
2023/01/04 02:27:38;;;;;;;6.80;3.70;;;7.90;95.60;;;;;;4832199;29;20054;-79
2023/01/04 02:30:38;;;;;;;6.97;3.20;;;7.90;95.80;;;;;;4828988;29;20193;-76
2023/01/04 02:33:09;;;;;;;3.42;2.80;;;7.90;95.80;;;;;;4831615;29;20549;-76
2023/01/04 02:35:45;;;;;;;7.20;3.10;;;8.00;95.80;;;;;;4832779;29;20060;-79
2023/01/04 02:38:33;;;;;;;6.55;2.80;;;8.00;95.80;;;;;;4832100;29;20398;-79
2023/01/04 02:41:08;;;;;;;3.85;2.67;;;8.00;95.80;;;;;;4830938;29;20068;-77
2023/01/04 02:46:58;;;;;;;4.28;2.40;;;8.00;96.10;;;;;;4829216;29;20066;-80
2023/01/04 02:52:08;;;;;;;3.70;2.40;;;8.00;96.20;;;;;;4831289;29;19928;-80
2023/01/04 02:54:34;;;;;;;3.47;2.50;;;8.00;96.20;;;;;;4816216;29;20282;-78
2023/01/04 02:57:31;;;;;;;5.07;2.70;;;8.00;96.10;;;;;;4827442;29;20058;-80
2023/01/04 03:00:13;;;;;;;4.28;2.42;;;8.10;96.20;;;;;;4827847;29;20048;-80
2023/01/04 03:06:16;;;;;;;5.30;2.22;;;8.10;96.20;;;;;;4827960;29;20054;-77
2023/01/04 03:09:04;;;;;;;4.57;2.42;;;8.20;96.20;;;;;;4823862;29;20057;-79
2023/01/04 03:14:50;;;;;;;5.38;2.28;;;8.20;96.20;;;;;;4828233;29;20066;-79
2023/01/04 03:17:18;;;;;;;5.20;2.28;;;8.20;96.30;;;;;;4819527;29;20083;-78
2023/01/04 03:19:56;;;;;;;4.53;2.60;;;8.20;96.40;;;;;;4825893;29;20038;-78
2023/01/04 03:37:24;;;;;;;4.75;2.47;;;8.40;96.90;;;;;;4827745;29;20058;-76
2023/01/04 03:48:45;;;;;;;2.50;1.75;;;8.50;97.30;;;;;;4831509;29;20366;-79
2023/01/04 03:51:13;;;;;;;4.18;1.75;;;8.60;97.10;;;;;;4827733;29;20098;-76
2023/01/04 03:54:11;;;;;;;5.22;1.80;;;8.70;97.10;;;;;;4815839;29;20045;-76
2023/01/04 03:56:40;;;;;;;3.08;2.10;;;8.70;97.00;;;;;;4809382;29;20562;-76
2023/01/04 03:59:07;;;;;;;4.28;1.90;;;8.80;97.10;;;;;;4828954;29;20087;-76
2023/01/04 04:01:35;;;;;;;5.65;1.80;;;8.80;97.20;;;;;;4826678;29;20045;-76
2023/01/04 04:09:30;;;;;;;2.25;1.63;;;9.00;97.10;;;;;;4829398;29;20050;-75
2023/01/04 04:11:56;;;;;;;1.90;1.60;;;9.10;97.10;;;;;;4821039;29;20049;-74
2023/01/04 04:14:22;;;;;;;1.55;1.45;;;9.10;97.00;;;;;;4830842;29;20061;-76
2023/01/04 04:16:47;;;;;;;1.70;1.60;;;9.20;97.00;;;;;;4831470;29;20042;-78
2023/01/04 04:19:13;;;;;;;1.95;1.70;;;9.20;97.00;;;;;;4840484;29;20054;-74
2023/01/04 04:21:39;;;;;;;2.08;1.60;;;9.20;97.00;;;;;;4814774;29;20105;-75
2023/01/04 04:24:05;;;;;;;1.73;1.50;;;9.30;97.00;;;;;;4831504;29;20090;-75
2023/01/04 04:26:31;;;;;;;2.28;1.60;;;9.30;96.90;;;;;;4829909;29;20498;-75
2023/01/04 04:28:56;;;;;;;1.92;1.40;;;9.30;96.80;;;;;;4814830;29;20057;-75
2023/01/04 04:31:22;;;;;;;2.28;1.52;;;9.40;96.90;;;;;;4830748;29;20065;-75
2023/01/04 04:33:47;;;;;;;2.15;1.63;;;9.40;96.80;;;;;;4828504;29;20053;-76
2023/01/04 04:36:13;;;;;;;2.15;1.67;;;9.50;96.70;;;;;;4831196;29;20136;-75
2023/01/04 04:38:39;;;;;;;4.22;1.80;;;9.50;96.70;;;;;;4829949;29;20053;-74
2023/01/04 04:43:57;;;;;;;1.88;1.77;;;9.70;96.50;;;;;;4826321;29;20042;-75
2023/01/04 04:46:23;;;;;;;1.70;1.60;;;9.70;96.40;;;;;;4830138;29;20078;-76
2023/01/04 04:48:48;;;;;;;4.30;1.90;;;9.80;96.70;;;;;;4829166;29;20046;-75
2023/01/04 04:51:14;;;;;;;2.10;1.90;;;9.80;96.60;;;;;;4832307;29;20684;-75
2023/01/04 04:53:39;;;;;;;2.42;2.15;;;9.80;96.20;;;;;;4814213;29;20141;-75
2023/01/04 04:56:06;;;;;;;2.42;1.80;;;9.80;96.10;;;;;;4830212;29;20041;-78
2023/01/04 04:58:32;;;;;;;4.47;2.15;;;9.90;96.10;;;;;;4829505;29;20050;-75
2023/01/04 05:00:57;;;;;;;1.95;1.75;;;9.90;96.10;;;;;;4826048;29;20079;-76
2023/01/04 05:03:23;;;;;;;1.80;1.70;;;10.00;96.10;;;;;;4828381;29;20098;-75
2023/01/04 05:05:48;;;;;;;3.22;1.85;;;10.00;96.00;;;;;;4826806;29;20058;-76
2023/01/04 05:08:14;;;;;;;1.92;1.83;;;10.00;95.90;;;;;;4828632;29;20054;-79
2023/01/04 05:10:40;;;;;;;2.17;1.98;;;10.10;95.90;;;;;;4827225;29;20045;-74
2023/01/04 05:13:09;;;;;;;3.88;2.40;;;10.10;95.90;;;;;;4826734;29;20085;-76
2023/01/04 05:15:38;;;;;;;2.63;2.42;;;10.10;95.90;;;;;;4826105;29;20038;-76
2023/01/04 05:18:05;;;;;;;2.63;2.42;;;10.10;95.90;;;;;;4829049;29;20058;-77
2023/01/04 05:20:31;;;;;;;2.88;2.63;;;10.10;96.00;;;;;;4826583;29;20041;-74
2023/01/04 05:22:56;;;;;;;2.92;2.63;;;10.20;96.00;;;;;;4826839;29;20094;-75
2023/01/04 05:25:22;;;;;;;3.03;2.53;;;10.10;96.00;;;;;;4826151;29;20050;-76
2023/01/04 05:27:48;;;;;;;2.67;2.47;;;10.20;95.90;;;;;;4832554;29;20062;-79
2023/01/04 05:33:01;;;;;;;3.35;2.80;;;10.30;95.70;;;;;;4846840;29;20054;-78
2023/01/04 05:35:27;;;;;;;5.15;2.65;;;10.40;95.70;;;;;;4832913;29;20049;-77
2023/01/04 05:37:53;;;;;;;5.03;3.20;;;10.30;95.80;;;;;;4836252;29;20074;-77
2023/01/04 05:40:19;;;;;;;4.13;3.38;;;10.40;96.00;;;;;;4832879;29;20037;-76
2023/01/04 05:42:44;;;;;;;5.25;3.25;;;10.30;96.00;;;;;;4834685;29;20065;-77
2023/01/04 05:45:10;;;;;;;4.00;3.10;;;10.30;96.20;;;;;;4833101;29;20078;-76
2023/01/04 05:47:36;;;;;;;5.85;3.70;;;10.30;96.20;;;;;;4817897;29;20184;-76
2023/01/04 05:50:03;;;;;;;4.68;3.60;;;10.40;96.10;;;;;;4828297;29;20647;-74
2023/01/04 05:52:28;;;;;;;8.50;3.55;;;10.40;96.30;;;;;;4835044;29;20058;-77
2023/01/04 05:54:54;;;;;;;3.95;3.35;;;10.40;96.50;;;;;;4833341;29;20042;-77
2023/01/04 05:57:20;;;;;;;4.75;3.65;;;10.30;96.60;;;;;;4831657;29;20045;-77
2023/01/04 05:59:45;;;;;;;4.38;3.70;;;10.30;96.70;;;;;;4830855;29;20093;-75
2023/01/04 06:02:30;;;;;;;5.03;3.97;;;10.30;96.80;;;;;;4827223;29;20127;-75
2023/01/04 06:04:56;;;;;;;5.15;4.07;;;10.40;97.20;;;;;;4835377;29;20057;-74
2023/01/04 06:07:23;;;;;;;8.27;4.20;;;10.30;97.00;;;;;;4840157;29;20442;-74
2023/01/04 06:09:48;;;;;;;4.32;3.80;;;10.30;97.00;;;;;;4833312;29;20046;-74
2023/01/04 06:12:14;;;;;;;7.43;3.90;;;10.40;96.90;;;;;;4832756;29;20111;-74
2023/01/04 06:14:39;;;;;;;5.15;3.70;;;10.40;97.00;;;;;;4831720;29;20045;-74
2023/01/04 06:17:06;;;;;;;5.03;3.70;;;10.40;97.00;;;;;;4832986;29;20042;-74
2023/01/04 06:19:32;;;;;;;5.68;3.47;;;10.40;97.00;;;;;;4832614;29;20072;-75
2023/01/04 06:21:57;;;;;;;7.55;3.50;;;10.40;97.00;;;;;;4830714;29;20050;-75
2023/01/04 06:24:23;;;;;;;3.70;3.10;;;10.40;97.00;;;;;;4826986;29;20046;-75
2023/01/04 06:26:49;;;;;;;6.10;3.40;;;10.40;97.10;;;;;;4828464;29;20138;-77
2023/01/04 06:29:15;;;;;;;4.38;3.50;;;10.40;97.20;;;;;;4825686;29;20137;-77
2023/01/04 06:31:40;;;;;;;4.15;3.15;;;10.40;97.20;;;;;;4834989;29;20038;-77
2023/01/04 06:34:06;;;;;;;4.75;3.28;;;10.40;97.30;;;;;;4829995;29;20534;-77
2023/01/04 06:36:32;;;;;;;4.68;3.08;;;10.40;97.50;;;;;;4830979;29;20093;-76
2023/01/04 06:38:58;;;;;;;4.65;3.45;;;10.40;97.50;;;;;;4833018;29;20053;-74
2023/01/04 06:41:24;;;;;;;4.78;3.05;;;10.40;97.50;;;;;;4831286;29;20101;-76
2023/01/04 06:43:50;;;;;;;5.32;3.28;;;10.40;97.40;;;;;;4832469;29;20060;-76
2023/01/04 06:46:15;;;;;;;6.85;3.22;;;10.40;97.50;;;;;;4815969;29;20440;-78
2023/01/04 06:48:41;;;;;;;5.57;3.05;;;10.40;97.40;;;;;;4830329;29;20054;-76
2023/01/04 06:51:07;;;;;;;6.80;3.00;;;10.50;97.50;;;;;;4834239;29;20554;-74
2023/01/04 06:53:32;;;;;;;5.63;2.80;;;10.50;97.50;;;;;;4835150;29;20083;-76
2023/01/04 06:55:58;;;;;;;5.07;2.50;;;10.50;97.90;;;;;;4832999;29;20118;-75
2023/01/04 06:58:23;;;;;;;3.75;2.50;;;10.50;97.50;;;;;;4814311;29;20515;-76
2023/01/04 07:00:54;;;;;;;6.18;2.50;;;10.50;97.40;;;;;;4829829;29;20045;-75
2023/01/04 07:03:20;;;;;;;5.30;2.90;;;10.50;97.40;;;;;;4825222;29;20057;-75
2023/01/04 07:05:45;;;;;;;5.05;2.20;;;10.50;97.40;;;;;;4825467;29;20054;-76
2023/01/04 07:08:12;;;;;;;4.65;2.30;;;10.50;97.40;;;;;;4831505;29;20054;-77
2023/01/04 07:10:38;;;;;;;3.50;2.30;;;10.50;97.50;;;;;;4828739;29;20085;-76
2023/01/04 07:13:05;;;;;;;2.45;2.08;;;10.60;97.40;;;;;;4823515;29;20045;-75
2023/01/04 07:15:31;;;;;;;4.47;2.17;;;10.60;97.40;;;;;;4827726;29;20419;-77
2023/01/04 07:17:57;;;;;;;3.25;2.10;;;10.60;97.40;;;;;;4826678;29;21108;-77
2023/01/04 07:20:23;;;;;;;3.75;1.75;;;10.60;97.40;;;;;;4802079;29;20133;-78
2023/01/04 07:22:48;;;;;;;4.15;1.90;;;10.50;97.40;;;;;;4822815;29;20712;-74
2023/01/04 07:25:14;;;;;;;2.78;1.90;;;10.60;97.40;;;;;;4824682;29;20423;-74
2023/01/04 07:27:40;;;;;;;2.72;1.75;;;10.60;97.80;;;;;;4827470;29;20373;-76
2023/01/04 07:30:06;;;;;;;2.30;1.65;;;10.50;97.40;;;;;;4832922;29;20608;-78
2023/01/04 07:32:31;;;;;;;2.10;1.70;;;10.60;97.40;;;;;;4831555;29;20046;-77
2023/01/04 07:34:57;;;;;;;1.70;1.60;;;10.70;97.20;;;;;;4822328;29;20054;-78
2023/01/04 07:37:23;;;;;;;2.55;1.98;;;10.60;97.20;;;;;;4824083;29;20050;-78
2023/01/04 07:39:48;;;;;;;3.05;1.98;;;10.70;97.10;;;;;;4830052;29;20190;-75
2023/01/04 07:42:14;;;;;;;4.72;2.08;;;10.70;97.10;;;;;;4830209;29;20571;-76
2023/01/04 07:44:40;;;;;;;3.22;2.00;;;10.70;97.20;;;;;;4828355;29;20197;-76
2023/01/04 07:47:05;;;;;;;8.05;1.70;;;10.70;97.10;;;;;;4830319;29;20053;-78
2023/01/04 07:49:31;;;;;;;3.88;1.42;;;10.70;97.20;;;;;;4829377;29;20099;-75
2023/01/04 07:51:57;;;;;;;1.73;1.60;;;10.70;97.10;;;;;;4829427;29;20061;-76
2023/01/04 07:54:25;;;;;;;3.47;1.90;;;10.70;97.20;;;;;;4826200;29;20049;-77
2023/01/04 07:56:51;;;;;;;2.00;1.80;;;10.70;97.20;;;;;;4829291;29;20049;-76
2023/01/04 07:59:19;;;;;;;2.95;1.70;;;10.70;97.30;;;;;;4825091;29;20041;-75
2023/01/04 08:01:46;;;;;;;3.92;1.80;;;10.70;97.10;;;;;;4822683;29;20534;-76
2023/01/04 08:04:16;;;;;;;1.73;1.63;;;10.70;97.10;;;;;;4829827;29;20046;-75
2023/01/04 08:07:05;;;;;;;2.72;1.90;;;10.80;97.20;;;;;;4831131;29;20483;-77
2023/01/04 08:09:34;;;;;;;1.65;1.55;;;10.80;97.20;;;;;;4831037;29;20326;-76
2023/01/04 08:12:01;;;;;;;1.63;1.52;;;10.80;97.10;;;;;;4831292;29;20100;-77
2023/01/04 08:14:28;;;;;;;5.55;2.08;;;10.80;97.20;;;;;;4830096;29;20038;-77
2023/01/04 08:16:54;;;;;;;5.45;3.67;;;10.70;97.20;;;;;;4810183;29;20125;-78
2023/01/04 08:19:26;;;;;;;4.60;1.80;;;10.70;97.20;;;;;;4828775;29;20042;-76
2023/01/04 08:21:52;;;;;;;6.30;2.65;;;10.80;97.30;;;;;;4825962;29;20134;-77
2023/01/04 08:24:19;;;;;;;2.78;1.80;;;10.70;97.40;;;;;;4827339;29;20048;-78
2023/01/04 08:26:45;;;;;;;3.10;1.70;;;10.70;97.40;;;;;;4826956;29;20040;-76
2023/01/04 08:29:11;;;;;;;2.65;2.08;;;10.80;97.40;;;;;;4824265;29;20263;-77
2023/01/04 08:31:38;;;;;;;6.68;2.40;;;10.70;97.40;;;;;;4827046;29;20042;-75
2023/01/04 08:34:07;;;;;;;4.03;1.85;;;10.80;97.40;;;;;;4825126;29;20061;-74
2023/01/04 08:36:34;;;;;;;;;;;10.80;97.30;;;;;;4810716;29;20193;-76
2023/01/04 08:41:52;;;;;;;2.45;2.10;;;10.80;97.40;;;;;;5178338;23;20069;-74
2023/01/04 08:44:19;;;;;;;4.13;2.08;;;10.80;97.40;;;;;;4839815;29;20053;-75
2023/01/04 08:46:45;;;;;;;7.05;2.80;;;10.90;97.40;;;;;;4837727;29;20072;-75
2023/01/04 08:49:11;;;;;;;5.13;2.35;;;10.80;97.40;;;;;;4836762;29;20041;-75
2023/01/04 08:51:37;;;;;;;5.40;2.38;;;10.90;97.50;;;;;;4841455;29;20101;-75
2023/01/04 08:54:03;;;;;;;3.58;2.20;;;10.80;97.50;;;;;;4831698;29;20045;-74
2023/01/04 08:56:28;;;;;;;3.53;2.03;;;10.90;97.50;;;;;;4841550;29;20108;-75
2023/01/04 08:58:54;;;;;;;3.28;1.70;;;10.80;97.40;;;;;;4846228;29;20045;-75
2023/01/04 09:01:19;;;;;;;2.63;1.60;;;10.90;97.40;;;;;;4835542;29;20441;-76
2023/01/04 09:03:45;;;;;;;3.58;1.70;;;10.90;97.40;;;;;;4846773;29;20117;-77
2023/01/04 09:06:13;;;;;;;1.83;1.50;;;10.90;97.40;;;;;;4838703;29;20779;-74
2023/01/04 09:08:40;;;;;;;30.08;2.30;;;11.00;97.20;;;;;;4839260;29;20057;-77
2023/01/04 09:11:17;;;;;;;2.47;1.50;;;11.00;97.30;;;;;;4827193;29;20160;-77
2023/01/04 09:13:44;;;;;;;2.13;1.30;;;11.00;97.30;;;;;;4831511;29;20122;-75
2023/01/04 09:16:15;;;;;;;2.20;1.30;;;11.00;97.30;;;;;;4840837;29;20141;-78
2023/01/04 09:18:41;;;;;;;2.10;1.13;;;11.00;97.30;;;;;;4844345;29;20050;-75
2023/01/04 09:21:09;;;;;;;1.10;1.00;;;11.00;97.40;;;;;;4837863;29;20089;-75
2023/01/04 09:23:37;;;;;;;1.40;1.02;;;11.00;97.50;;;;;;4841737;29;20133;-75
2023/01/04 09:26:08;;;;;;;2.60;1.08;;;11.00;97.40;;;;;;4843863;29;20074;-79
2023/01/04 09:28:34;;;;;;;2.53;0.80;;;11.00;97.50;;;;;;4835971;29;20057;-77
2023/01/04 09:31:11;;;;;;;2.15;0.80;;;11.00;97.50;;;;;;4830874;29;20058;-77
2023/01/04 09:33:37;;;;;;;0.85;0.70;;;11.00;97.50;;;;;;4836885;29;20042;-78
2023/01/04 09:36:05;;;;;;;2.10;0.90;;;11.00;97.50;;;;;;4835832;29;20498;-79
2023/01/04 09:38:32;;;;;;;4.93;0.95;;;11.00;97.50;;;;;;4834323;29;20454;-80
2023/01/04 09:41:07;;;;;;;1.70;0.90;;;11.00;97.50;;;;;;4828975;29;20054;-79
2023/01/04 09:43:50;;;;;;;0.98;0.73;;;11.00;97.40;;;;;;4837668;29;20113;-78
2023/01/04 09:46:39;;;;;;;0.70;0.70;;;11.00;97.40;;;;;;4836903;29;20565;-80
2023/01/04 09:49:15;;;;;;;0.80;0.80;;;11.00;97.30;;;;;;4829566;29;20060;-80
2023/01/04 09:51:47;;;;;;;1.08;0.70;;;11.10;97.40;;;;;;4838964;29;20038;-79
2023/01/04 09:54:19;;;;;;;1.48;1.05;;;11.10;97.20;;;;;;4823978;29;20406;-78
2023/01/04 09:56:57;;;;;;;2.38;1.10;;;11.10;97.20;;;;;;4843956;29;20054;-79
2023/01/04 09:59:30;;;;;;;2.42;1.17;;;11.20;97.10;;;;;;4836624;29;20525;-78
2023/01/04 10:02:08;;;;;;;1.52;1.30;;;11.20;96.90;;;;;;4835005;29;20052;-81
2023/01/04 10:04:42;;;;;;;3.45;1.40;;;11.30;97.00;;;;;;4838814;29;20221;-79
2023/01/04 10:07:17;;;;;;;5.35;1.60;;;11.30;96.80;;;;;;4828590;29;20050;-79
2023/01/04 10:09:43;;;;;;;5.70;1.98;;;11.30;96.70;;;;;;4830714;29;20507;-77
2023/01/04 10:12:18;;;;;;;4.00;1.55;;;11.30;96.70;;;;;;4820546;29;20049;-79
2023/01/04 10:15:21;;;;;;;5.40;1.88;;;11.40;96.60;;;;;;4823593;29;20130;-80
2023/01/04 10:18:14;;;;;;;6.10;2.05;;;11.50;96.60;;;;;;4835344;29;20057;-80
2023/01/04 10:21:06;;;;;;;5.90;2.03;;;11.50;96.30;;;;;;4834005;29;20061;-80
2023/01/04 10:24:14;;;;;;;11.18;2.30;;;11.60;96.00;;;;;;4841094;29;20030;-80
2023/01/04 10:26:49;;;;;;;8.63;1.95;;;11.60;95.80;;;;;;4835441;29;20046;-78
2023/01/04 10:29:43;;;;;;;10.57;2.60;;;11.60;95.70;;;;;;4812031;29;20138;-78
2023/01/04 10:32:21;;;;;;;15.77;3.10;;;11.60;95.50;;;;;;4837668;29;20137;-79
2023/01/04 10:34:47;;;;;;;15.52;2.58;;;11.70;95.50;;;;;;4814758;29;20098;-79
2023/01/04 10:37:34;;;;;;;13.80;2.60;;;11.70;95.40;;;;;;4833455;29;20526;-80
2023/01/04 10:40:00;;;;;;;15.52;2.90;;;11.70;95.30;;;;;;4833134;29;20101;-80
2023/01/04 10:42:47;;;;;;;18.02;3.13;;;11.70;95.40;;;;;;4833859;29;20053;-80
2023/01/04 10:45:17;;;;;;;23.50;6.43;;;11.80;95.30;;;;;;4836966;29;20081;-80
2023/01/04 10:48:01;;;;;;;47.60;14.15;;;11.70;95.20;;;;;;4837340;29;20664;-80
2023/01/04 10:50:46;;;;;;;19.02;4.18;;;11.80;95.50;;;;;;4838421;29;20103;-78
2023/01/04 10:53:18;;;;;;;25.40;4.10;;;11.80;94.90;;;;;;4828702;29;20456;-80
2023/01/04 10:55:58;;;;;;;21.60;3.65;;;11.80;95.00;;;;;;4833880;29;20053;-84
2023/01/04 10:58:38;;;;;;;24.42;3.70;;;11.80;94.80;;;;;;4833712;29;20045;-79
2023/01/04 11:01:48;;;;;;;21.40;3.97;;;11.80;94.80;;;;;;4837524;29;20041;-78
2023/01/04 11:04:23;;;;;;;13.18;3.72;;;11.80;94.60;;;;;;4838933;29;20103;-78
2023/01/04 11:06:55;;;;;;;21.27;3.70;;;11.90;94.80;;;;;;4827655;29;20528;-78
2023/01/04 11:09:29;;;;;;;26.20;3.83;;;11.90;94.70;;;;;;4837931;29;20049;-79
2023/01/04 11:11:56;;;;;;;28.23;4.80;;;11.80;94.60;;;;;;4824499;29;20052;-75
2023/01/04 11:14:23;;;;;;;22.58;3.88;;;11.90;94.70;;;;;;4824417;29;20070;-79
2023/01/04 11:16:53;;;;;;;24.15;4.15;;;11.90;94.60;;;;;;4831533;29;20061;-77
2023/01/04 11:19:18;;;;;;;25.00;3.78;;;12.00;94.50;;;;;;4839407;29;20054;-77
2023/01/04 11:21:58;;;;;;;22.08;3.85;;;12.00;94.40;;;;;;4833325;29;20034;-78
2023/01/04 11:24:30;;;;;;;23.25;3.95;;;12.00;94.20;;;;;;4836009;29;20037;-78
2023/01/04 11:26:58;;;;;;;19.10;3.25;;;12.10;94.30;;;;;;4833460;29;20056;-77
2023/01/04 11:29:31;;;;;;;;;;;12.10;94.20;;;;;;4825026;29;20089;-77
2023/01/04 11:32:01;;;;;;;22.08;4.18;;;12.20;94.10;;;;;;4844183;29;19927;-79
2023/01/04 11:34:44;;;;;;;21.45;4.32;;;12.20;94.00;;;;;;4831308;29;20042;-77
2023/01/04 11:37:36;;;;;;;25.80;3.72;;;12.20;93.80;;;;;;4822120;29;20038;-78
2023/01/04 11:40:23;;;;;;;22.67;4.20;;;12.10;93.60;;;;;;4801145;29;21055;-77
2023/01/04 11:43:10;;;;;;;19.80;3.45;;;12.10;93.60;;;;;;4833221;29;20061;-77
2023/01/04 11:45:37;;;;;;;21.97;3.93;;;12.20;93.60;;;;;;4809881;29;20054;-78
2023/01/04 11:48:05;;;;;;;29.63;4.57;;;12.20;93.70;;;;;;4825463;29;20146;-78
2023/01/04 11:50:39;;;;;;;25.52;3.72;;;12.20;93.60;;;;;;4826529;29;20046;-79
2023/01/04 11:53:31;;;;;;;15.23;3.22;;;12.20;93.40;;;;;;4827288;29;20043;-79
2023/01/04 11:56:14;;;;;;;27.73;4.28;;;12.20;93.20;;;;;;4809372;29;20089;-78
2023/01/04 11:59:02;;;;;;;20.77;3.42;;;12.20;93.30;;;;;;4830898;29;20129;-78
2023/01/04 12:01:28;;;;;;;24.33;4.38;;;12.20;93.40;;;;;;4836323;29;20056;-80
2023/01/04 12:03:53;;;;;;;25.75;4.32;;;12.20;93.30;;;;;;4835288;29;20037;-78
2023/01/04 12:06:37;;;;;;;27.58;3.75;;;12.20;93.40;;;;;;4834336;29;20345;-77
2023/01/04 12:09:03;;;;;;;25.92;3.97;;;12.20;93.20;;;;;;4827815;29;20089;-79
2023/01/04 12:11:35;;;;;;;26.60;3.58;;;12.20;93.20;;;;;;4835637;29;20086;-78
2023/01/04 12:14:02;;;;;;;17.67;3.33;;;12.20;93.10;;;;;;4827737;29;20042;-78
2023/01/04 12:16:39;;;;;;;25.95;4.47;;;12.20;93.10;;;;;;4809569;29;20054;-78
2023/01/04 12:19:05;;;;;;;25.83;4.05;;;12.20;93.20;;;;;;4836137;29;20046;-79
2023/01/04 12:21:33;;;;;;;21.42;3.53;;;12.20;93.10;;;;;;4834587;29;20566;-77
2023/01/04 12:23:59;;;;;;;15.63;2.80;;;12.30;93.10;;;;;;4834325;29;20053;-79
2023/01/04 12:26:25;;;;;;;20.20;3.45;;;12.30;92.80;;;;;;4835198;29;20051;-79
2023/01/04 12:29:22;;;;;;;24.10;3.45;;;12.20;92.50;;;;;;4817974;29;20057;-78
2023/01/04 12:31:53;;;;;;;17.58;2.88;;;12.30;92.60;;;;;;4835533;29;20140;-79
2023/01/04 12:34:21;;;;;;;11.65;2.10;;;12.30;92.70;;;;;;4827883;29;20045;-78
2023/01/04 12:36:47;;;;;;;;;;;12.30;92.60;;;;;;4830687;29;20050;-76
2023/01/04 12:39:12;;;;;;;8.73;2.22;;;12.30;92.00;;;;;;4838801;29;19928;-76
2023/01/04 12:41:38;;;;;;;10.05;1.83;;;12.30;92.50;;;;;;4808792;29;20850;-78
2023/01/04 12:44:35;;;;;;;10.45;1.80;;;12.30;92.20;;;;;;4834200;29;20061;-78
2023/01/04 12:50:07;;;;;;;8.00;1.73;;;12.20;92.50;;;;;;4830113;29;20447;-77
2023/01/04 12:52:48;;;;;;;8.82;1.83;;;12.30;92.30;;;;;;4831488;29;20081;-75
2023/01/04 12:55:32;;;;;;;8.32;2.03;;;12.20;92.30;;;;;;4831400;29;20880;-79
2023/01/04 12:58:00;;;;;;;8.13;1.70;;;12.30;92.30;;;;;;4836025;29;20614;-79
2023/01/04 13:00:50;;;;;;;6.57;1.40;;;12.20;92.30;;;;;;4831346;29;20053;-77
2023/01/04 13:03:16;;;;;;;10.57;1.90;;;12.20;92.50;;;;;;4829441;29;20502;-79
2023/01/04 13:06:05;;;;;;;8.60;1.45;;;12.20;92.40;;;;;;4832072;29;20125;-79
2023/01/04 13:08:38;;;;;;;7.18;1.65;;;12.10;92.30;;;;;;4832769;29;20050;-79
2023/01/04 13:11:17;;;;;;;9.77;2.03;;;12.10;92.30;;;;;;4818198;29;20042;-80
2023/01/04 13:13:55;;;;;;;10.13;1.83;;;12.10;92.30;;;;;;4834322;29;20596;-80
2023/01/04 13:16:46;;;;;;;7.15;2.00;;;12.10;92.20;;;;;;4834767;29;20125;-79
2023/01/04 13:19:21;;;;;;;14.48;2.35;;;12.10;92.40;;;;;;4828533;29;20058;-79
2023/01/04 13:21:48;;;;;;;11.50;2.33;;;12.10;92.40;;;;;;4830375;29;20042;-80
2023/01/04 13:24:19;;;;;;;15.10;2.45;;;12.10;92.30;;;;;;4834083;29;20042;-79
2023/01/04 13:26:47;;;;;;;14.05;2.70;;;12.00;92.30;;;;;;4831158;29;20053;-79
2023/01/04 13:29:29;;;;;;;13.25;2.30;;;12.10;92.50;;;;;;4822790;29;20046;-80
2023/01/04 13:32:00;;;;;;;14.23;2.70;;;12.00;92.30;;;;;;4834773;29;20052;-79
2023/01/04 13:34:38;;;;;;;13.57;2.92;;;12.00;92.20;;;;;;4832949;29;20061;-79
2023/01/04 13:37:10;;;;;;;33.83;9.25;;;12.10;91.80;;;;;;4834495;29;20581;-79
2023/01/04 13:39:41;;;;;;;41.97;13.32;;;12.00;92.00;;;;;;4833229;29;20050;-78
2023/01/04 13:42:23;;;;;;;25.67;7.03;;;12.00;92.10;;;;;;4832270;29;20065;-80
2023/01/04 13:44:59;;;;;;;29.25;6.65;;;12.10;92.00;;;;;;4836126;29;20053;-80
2023/01/04 13:47:25;;;;;;;30.02;6.45;;;12.00;92.00;;;;;;4835883;29;20054;-79
2023/01/04 13:49:51;;;;;;;20.95;5.25;;;12.00;92.00;;;;;;4837797;29;20263;-80
2023/01/04 13:52:21;;;;;;;23.63;4.30;;;12.00;92.10;;;;;;4836611;29;20061;-79
2023/01/04 13:54:46;;;;;;;21.92;4.95;;;12.00;92.00;;;;;;4837628;29;20552;-80
2023/01/04 13:57:20;;;;;;;25.60;4.50;;;12.00;92.00;;;;;;4836053;29;20596;-79
2023/01/04 13:59:50;;;;;;;20.50;3.92;;;12.00;92.00;;;;;;4836147;29;20053;-80